PST,Max TemperatureF,Mean TemperatureF,Min TemperatureF,Max Dew PointF,MeanDew PointF,Min DewpointF,Max Humidity, Mean Humidity, Min Humidity, Max Sea Level PressureIn, Mean Sea Level PressureIn, Min Sea Level PressureIn, Max VisibilityMiles, Mean VisibilityMiles, Min VisibilityMiles, Max Wind SpeedMPH, Mean Wind SpeedMPH, Max Gust SpeedMPH,PrecipitationIn, CloudCover, Events, WindDirDegrees
2012-11-1,68,58,47,57,53,46,100,76,52,30.06,30.00,29.97,10,7,0,12,2,14,0.02,5,Fog-Rain,215
2012-11-2,67,55,42,52,45,41,100,74,48,30.09,30.05,30.00,10,4,0,6,2,8,0.00,5,Fog,277
2012-11-3,76,62,48,52,50,47,96,70,43,30.13,30.09,30.05,10,10,9,10,1,12,0.00,2,,247
2012-11-4,81,65,48,56,51,46,100,70,39,30.19,30.15,30.10,10,8,0,7,1,8,0.00,0,Fog,160
2012-11-5,82,65,47,58,52,46,100,70,40,30.14,30.10,30.01,10,6,0,6,2,23,0.00,1,Fog,256
2012-11-6,81,63,45,56,50,44,100,70,39,30.07,30.04,29.96,10,4,0,6,1,14,0.00,1,Fog,234
2012-11-7,59,54,49,54,51,46,100,90,80,30.05,29.98,29.88,10,3,0,10,3,12,0.00,6,Fog,154
2012-11-8,58,48,37,48,41,35,100,76,51,29.92,29.88,29.84,10,9,1,18,6,24,0.02,4,Rain,267
2012-11-9,58,46,33,41,37,33,100,72,43,29.97,29.92,29.88,10,9,0,13,4,17,0.00,3,Fog,289
2012-11-10,61,46,30,39,32,28,100,66,32,30.23,30.06,29.98,10,7,0,16,3,20,0.00,1,Fog,331
2012-11-11,60,45,30,38,35,30,96,68,40,30.37,30.32,30.24,10,9,2,8,1,9,0.00,2,Fog,186
2012-11-12,65,51,36,40,36,30,92,61,30,30.37,30.31,30.24,10,10,10,6,1,15,0.00,1,,331
2012-11-13,67,53,38,46,42,36,92,66,40,30.25,30.15,30.07,10,8,2,5,0,10,0.00,2,,315
2012-11-14,71,55,38,51,43,37,100,74,47,30.13,30.08,30.00,10,5,0,8,2,10,0.00,1,Fog,351
2012-11-15,69,54,38,50,42,36,100,70,39,30.01,29.98,29.93,10,5,0,15,2,18,0.00,4,Fog,186
2012-11-16,60,54,48,55,51,45,96,90,83,29.98,29.91,29.83,10,5,2,8,2,10,0.90,7,Rain,32
2012-11-17,63,57,50,56,54,48,100,83,65,29.99,29.84,29.76,10,5,1,14,5,20,1.12,8,Rain,189
2012-11-18,57,47,37,50,43,37,100,83,66,30.16,30.08,29.99,10,5,0,6,2,8,0.01,5,Fog-Rain,330
2012-11-19,63,57,51,54,50,46,89,75,60,30.20,30.15,30.12,10,9,2,13,5,17,0.03,7,Rain,162
2012-11-20,61,58,54,58,56,54,100,95,90,30.13,30.04,29.96,10,4,2,21,10,30,1.08,8,Rain,166
2012-11-21,64,53,41,55,51,40,100,78,55,30.19,30.09,30.01,10,6,0,13,3,15,0.04,5,Fog-Rain,321
2012-11-22,66,52,38,48,43,36,100,73,45,30.25,30.20,30.16,10,8,0,7,3,9,0.00,1,Fog,328
2012-11-23,70,54,38,48,43,37,100,68,36,30.26,30.20,30.15,10,8,2,8,3,9,0.01,1,Fog,329
2012-11-24,70,54,37,51,41,36,100,72,44,30.20,30.13,30.02,10,5,0,7,1,7,0.00,0,Fog,303
2012-11-25,67,53,39,51,43,37,100,79,58,30.03,29.98,29.91,10,3,0,7,1,8,0.00,2,Fog,152
2012-11-26,65,52,39,51,44,37,100,80,60,30.07,30.01,29.96,10,3,0,8,1,9,0.01,5,Fog,174
2012-11-27,61,56,51,50,49,47,96,80,64,30.10,30.04,29.97,10,7,2,14,4,17,0.00,8,,131
2012-11-28,61,56,51,54,51,46,93,80,67,30.01,29.89,29.78,10,7,1,21,7,28,1.27,7,Rain,164
2012-11-29,61,56,50,58,55,49,96,83,69,29.99,29.89,29.78,10,6,2,28,14,36,1.62,8,Rain,157
2012-11-30,61,58,55,58,56,54,100,89,78,29.97,29.83,29.73,10,6,2,25,9,38,2.17,8,Rain,184